createdAt,value
2023-05-08T00:00:05.089Z,11.73
2023-05-08T00:02:51.733Z,17.23
2023-05-08T00:05:18.974Z,15.30
2023-05-08T00:07:45.763Z,12.55
2023-05-08T00:10:12.779Z,17.42
2023-05-08T00:12:39.959Z,11.88
2023-05-08T00:15:07.145Z,12.25
2023-05-08T00:17:34.706Z,12.15
2023-05-08T00:20:02.327Z,10.68
2023-05-08T00:22:28.811Z,9.30
2023-05-08T00:24:55.334Z,10.63
2023-05-08T00:27:21.800Z,7.22
2023-05-08T00:32:15.975Z,7.30
2023-05-08T00:34:42.835Z,11.27
2023-05-08T00:37:09.310Z,9.52
2023-05-08T00:39:35.780Z,8.27
2023-05-08T00:44:29.092Z,10.27
2023-05-08T00:46:56.037Z,8.85
2023-05-08T00:49:23.184Z,9.07
2023-05-08T00:51:52.419Z,8.52
2023-05-08T00:54:19.427Z,11.20
2023-05-08T00:56:47.104Z,9.43
2023-05-08T00:59:16.184Z,9.20
2023-05-08T01:01:43.608Z,8.20
2023-05-08T01:04:10.820Z,9.48
2023-05-08T01:06:38.073Z,9.35
2023-05-08T01:09:04.923Z,8.80
2023-05-08T01:11:37.720Z,10.02
2023-05-08T01:14:19.292Z,8.60
2023-05-08T01:17:11.785Z,7.53
2023-05-08T01:19:59.804Z,11.02
2023-05-08T01:22:44.864Z,10.60
2023-05-08T01:25:44.028Z,9.02
2023-05-08T01:28:32.536Z,8.85
2023-05-08T01:31:11.818Z,8.35
2023-05-08T01:33:46.052Z,7.70
2023-05-08T01:36:31.255Z,8.75
2023-05-08T01:39:09.598Z,7.18
2023-05-08T01:41:39.412Z,6.32
2023-05-08T01:44:13.286Z,5.32
2023-05-08T01:46:39.828Z,7.68
2023-05-08T01:49:12.137Z,7.60
2023-05-08T01:51:58.086Z,5.97
2023-05-08T01:54:28.356Z,6.88
2023-05-08T01:56:57.882Z,7.50
2023-05-08T01:59:28.165Z,6.15
2023-05-08T02:01:57.188Z,7.45
2023-05-08T02:04:25.643Z,8.75
2023-05-08T02:06:53.435Z,8.73
2023-05-08T02:09:22.516Z,7.15
2023-05-08T02:11:50.575Z,6.13
2023-05-08T02:14:19.935Z,8.35
2023-05-08T02:16:49.969Z,6.68
2023-05-08T02:19:18.666Z,8.18
2023-05-08T02:21:47.047Z,7.22
2023-05-08T02:24:14.888Z,6.20
2023-05-08T02:26:43.898Z,6.75
2023-05-08T02:29:11.277Z,7.32
2023-05-08T02:31:39.611Z,7.43
2023-05-08T02:34:08.316Z,8.55
2023-05-08T02:36:36.521Z,6.72
2023-05-08T02:39:03.679Z,10.85
2023-05-08T02:41:33.338Z,10.55
2023-05-08T02:44:00.132Z,11.93
2023-05-08T02:46:41.655Z,10.38
2023-05-08T02:49:20.288Z,10.95
2023-05-08T02:51:59.928Z,10.60
2023-05-08T02:54:36.517Z,9.00
2023-05-08T02:57:18.699Z,9.50
2023-05-08T02:59:56.833Z,8.05
2023-05-08T03:02:32.250Z,8.77
2023-05-08T03:05:32.606Z,8.82
2023-05-08T03:08:03.245Z,6.40
2023-05-08T03:10:33.881Z,5.85
2023-05-08T03:13:04.698Z,5.07
2023-05-08T03:15:40.889Z,5.07
2023-05-08T03:18:12.473Z,5.50
2023-05-08T03:20:43.285Z,7.10
2023-05-08T03:23:13.178Z,5.15
2023-05-08T03:25:43.370Z,7.93
2023-05-08T03:28:11.317Z,5.53
2023-05-08T03:30:40.971Z,6.32
2023-05-08T03:33:08.535Z,6.45
2023-05-08T03:35:37.374Z,6.95
2023-05-08T03:38:08.283Z,7.70
2023-05-08T03:40:39.069Z,5.85
2023-05-08T03:43:07.937Z,8.10
2023-05-08T03:45:38.984Z,8.38
2023-05-08T03:48:07.190Z,8.05
2023-05-08T03:50:35.757Z,7.72
2023-05-08T03:53:03.302Z,8.13
2023-05-08T03:55:33.087Z,10.45
2023-05-08T03:58:06.170Z,8.75
2023-05-08T04:00:47.854Z,9.68
2023-05-08T04:03:24.847Z,7.35
2023-05-08T04:06:22.726Z,9.45
2023-05-08T04:08:55.315Z,7.72
2023-05-08T04:11:30.391Z,8.57
2023-05-08T04:14:03.742Z,8.15
2023-05-08T04:16:37.107Z,9.05
2023-05-08T04:19:10.883Z,9.85
2023-05-08T04:21:42.801Z,9.43
2023-05-08T04:24:14.781Z,10.43
2023-05-08T04:26:42.993Z,10.07
2023-05-08T04:29:10.549Z,11.05
2023-05-08T04:31:39.798Z,10.10
2023-05-08T04:34:09.164Z,9.55
2023-05-08T04:36:35.909Z,9.30
2023-05-08T04:39:02.477Z,12.40
2023-05-08T04:41:29.303Z,9.73
2023-05-08T04:43:56.006Z,8.98
2023-05-08T04:46:24.406Z,9.52
2023-05-08T04:48:51.016Z,10.40
2023-05-08T04:53:44.645Z,9.68
2023-05-08T04:56:11.265Z,10.60
2023-05-08T04:58:38.029Z,11.13
2023-05-08T05:03:31.626Z,10.38
2023-05-08T05:05:59.377Z,11.45
2023-05-08T05:08:26.758Z,11.07
2023-05-08T05:10:53.526Z,11.05
2023-05-08T05:13:20.582Z,13.75
2023-05-08T05:15:47.313Z,12.73
2023-05-08T05:20:40.563Z,11.93
2023-05-08T05:23:07.301Z,11.27
2023-05-08T05:25:34.780Z,8.80
2023-05-08T05:28:02.057Z,11.27
2023-05-08T05:30:28.922Z,10.88
2023-05-08T05:32:55.985Z,12.18
2023-05-08T05:35:24.968Z,10.02
2023-05-08T05:37:52.739Z,12.70
2023-05-08T05:40:20.143Z,10.75
2023-05-08T05:42:53.422Z,10.40
2023-05-08T05:45:20.068Z,11.32
2023-05-08T05:47:53.864Z,11.48
2023-05-08T05:50:23.461Z,9.25
2023-05-08T05:52:50.028Z,9.70
2023-05-08T05:55:17.074Z,8.95
2023-05-08T05:57:44.078Z,12.90
2023-05-08T06:00:11.270Z,11.40
2023-05-08T06:02:39.170Z,13.18
2023-05-08T06:05:07.035Z,11.27
2023-05-08T06:07:33.557Z,9.57
2023-05-08T06:10:00.368Z,11.45
2023-05-08T06:12:28.337Z,12.20
2023-05-08T06:14:55.149Z,12.20
2023-05-08T06:17:22.160Z,10.45
2023-05-08T06:19:53.934Z,11.45
2023-05-08T06:22:23.218Z,10.80
2023-05-08T06:24:53.410Z,9.35
2023-05-08T06:27:23.296Z,11.68
2023-05-08T06:29:53.373Z,12.75
2023-05-08T06:32:20.996Z,11.52
2023-05-08T06:34:48.389Z,9.82
2023-05-08T06:37:15.360Z,10.15
2023-05-08T06:42:08.859Z,9.95
2023-05-08T06:44:36.269Z,10.85
2023-05-08T06:47:03.295Z,12.30
2023-05-08T06:49:29.932Z,10.00
2023-05-08T06:51:57.976Z,10.77
2023-05-08T06:54:25.046Z,10.40
2023-05-08T06:56:54.014Z,9.50
2023-05-08T06:59:23.106Z,9.00
2023-05-08T07:01:50.102Z,9.70
2023-05-08T07:04:16.662Z,9.93
2023-05-08T07:09:10.644Z,9.27
2023-05-08T07:11:37.579Z,12.70
2023-05-08T07:14:04.569Z,10.90
2023-05-08T07:16:31.054Z,13.20
2023-05-08T07:18:57.700Z,11.13
2023-05-08T07:21:24.964Z,8.18
2023-05-08T07:23:53.623Z,9.45
2023-05-08T07:26:20.067Z,10.20
2023-05-08T07:28:47.326Z,10.68
2023-05-08T07:33:40.874Z,8.82
2023-05-08T07:36:08.199Z,11.02
2023-05-08T07:41:02.052Z,10.32
2023-05-08T07:43:28.864Z,11.43
2023-05-08T07:45:55.471Z,11.60
2023-05-08T07:48:22.134Z,8.75
2023-05-08T07:50:51.908Z,9.75
2023-05-08T07:53:18.353Z,8.63
2023-05-08T07:55:44.775Z,9.18
2023-05-08T07:58:11.412Z,9.65
2023-05-08T08:00:37.840Z,9.85
2023-05-08T08:03:05.154Z,10.90
2023-05-08T08:05:31.929Z,12.15
2023-05-08T08:07:58.792Z,10.00
2023-05-08T08:10:25.896Z,12.57
2023-05-08T08:12:52.288Z,10.90
2023-05-08T08:15:19.430Z,10.77
2023-05-08T08:17:46.643Z,10.25
2023-05-08T08:20:13.769Z,10.95
2023-05-08T08:22:40.659Z,11.48
2023-05-08T08:25:07.820Z,11.02
2023-05-08T08:27:34.525Z,10.00
2023-05-08T08:30:15.161Z,11.32
2023-05-08T08:32:43.995Z,11.80
2023-05-08T08:35:11.261Z,9.60
2023-05-08T08:37:38.114Z,9.73
2023-05-08T08:40:05.425Z,13.43
2023-05-08T08:42:33.885Z,8.43
2023-05-08T08:45:01.120Z,9.15
2023-05-08T08:47:29.728Z,10.05
2023-05-08T08:49:58.902Z,9.70
2023-05-08T08:52:56.343Z,8.02
2023-05-08T08:55:23.682Z,8.88
2023-05-08T08:57:59.141Z,11.50
2023-05-08T09:00:30.918Z,8.75
2023-05-08T09:02:58.058Z,8.32
2023-05-08T09:05:26.361Z,8.70
2023-05-08T09:07:56.345Z,9.45
2023-05-08T09:10:24.494Z,9.40
2023-05-08T09:12:51.776Z,9.90
2023-05-08T09:15:18.473Z,11.25
2023-05-08T09:17:45.027Z,11.13
2023-05-08T09:20:14.852Z,12.82
2023-05-08T09:22:43.590Z,10.70
2023-05-08T09:25:10.630Z,10.02
2023-05-08T09:27:37.450Z,11.52
2023-05-08T09:30:05.789Z,10.15
2023-05-08T09:32:34.318Z,10.48
2023-05-08T09:35:02.279Z,10.82
2023-05-08T09:37:30.024Z,9.98
2023-05-08T09:40:21.658Z,13.10
2023-05-08T09:42:50.175Z,9.82
2023-05-08T09:45:33.221Z,12.70
2023-05-08T09:47:59.868Z,12.65
2023-05-08T09:50:27.672Z,11.10
2023-05-08T09:52:54.270Z,11.80
2023-05-08T09:55:20.940Z,10.63
2023-05-08T09:57:58.857Z,11.93
2023-05-08T10:00:27.317Z,11.65
2023-05-08T10:03:02.807Z,11.52
2023-05-08T10:05:32.382Z,10.77
2023-05-08T10:08:19.034Z,11.13
2023-05-08T10:10:45.967Z,9.90
2023-05-08T10:13:12.619Z,11.85
2023-05-08T10:18:11.833Z,11.82
2023-05-08T10:20:40.888Z,12.00
2023-05-08T10:23:11.396Z,14.23
2023-05-08T10:25:44.621Z,12.68
2023-05-08T10:28:36.620Z,13.52
2023-05-08T10:31:05.527Z,13.23
2023-05-08T10:33:34.949Z,12.18
2023-05-08T10:36:02.605Z,12.95
2023-05-08T10:38:31.062Z,12.48
2023-05-08T10:41:01.087Z,12.88
2023-05-08T10:43:30.937Z,12.20
2023-05-08T10:46:02.231Z,12.52
2023-05-08T10:48:43.799Z,12.85
2023-05-08T10:51:20.439Z,11.02
2023-05-08T10:53:59.223Z,13.52
2023-05-08T10:58:58.810Z,13.88
2023-05-08T11:01:26.478Z,12.55
2023-05-08T11:03:55.531Z,11.88
2023-05-08T11:06:44.551Z,11.57
2023-05-08T11:09:19.769Z,10.45
2023-05-08T11:11:54.763Z,14.48
2023-05-08T11:14:23.346Z,11.68
2023-05-08T11:17:02.144Z,11.75
2023-05-08T11:19:29.394Z,11.02
2023-05-08T11:22:12.938Z,12.10
2023-05-08T11:24:41.347Z,10.00
2023-05-08T11:27:07.893Z,11.43
2023-05-08T11:29:36.084Z,13.38
2023-05-08T11:32:02.656Z,10.98
2023-05-08T11:34:46.038Z,11.30
2023-05-08T11:37:24.082Z,12.10
2023-05-08T11:39:50.901Z,10.07
2023-05-08T11:42:29.617Z,10.65
2023-05-08T11:45:06.575Z,8.88
2023-05-08T11:47:42.454Z,9.65
2023-05-08T11:50:10.492Z,9.27
2023-05-08T11:52:40.315Z,8.45
2023-05-08T11:55:11.623Z,8.23
2023-05-08T11:57:39.289Z,11.40
2023-05-08T12:00:10.892Z,8.07
2023-05-08T12:02:42.561Z,9.40
2023-05-08T12:05:11.110Z,8.95
2023-05-08T12:07:46.150Z,8.40
2023-05-08T12:10:14.210Z,8.23
2023-05-08T12:12:43.328Z,8.15
2023-05-08T12:15:15.010Z,10.00
2023-05-08T12:17:42.569Z,8.63
2023-05-08T12:20:15.414Z,9.73
2023-05-08T12:22:43.640Z,8.35
2023-05-08T12:25:11.852Z,8.90
2023-05-08T12:27:39.063Z,8.55
2023-05-08T12:30:11.053Z,8.52
2023-05-08T12:32:39.396Z,7.70
2023-05-08T12:35:08.165Z,7.40
2023-05-08T12:37:36.492Z,7.70
2023-05-08T12:40:04.455Z,8.35
2023-05-08T12:42:49.674Z,8.13
2023-05-08T12:45:24.942Z,7.85
2023-05-08T12:47:53.071Z,7.10
2023-05-08T12:50:21.190Z,7.15
2023-05-08T12:52:51.358Z,7.78
2023-05-08T12:55:24.806Z,7.22
2023-05-08T12:58:00.691Z,7.63
2023-05-08T13:00:38.784Z,6.70
2023-05-08T13:05:35.514Z,7.30
2023-05-08T13:08:07.309Z,7.35
2023-05-08T13:10:49.378Z,9.10
2023-05-08T13:13:18.680Z,7.50
2023-05-08T13:15:45.630Z,7.93
2023-05-08T13:18:12.325Z,7.28
2023-05-08T13:20:39.551Z,9.68
2023-05-08T13:23:08.917Z,9.50
2023-05-08T13:25:37.122Z,8.40
2023-05-08T13:28:04.795Z,8.35
2023-05-08T13:30:31.711Z,9.98
2023-05-08T13:32:58.648Z,8.80
2023-05-08T13:35:25.489Z,8.20
2023-05-08T13:37:52.276Z,7.82
2023-05-08T13:40:18.999Z,7.95
2023-05-08T13:42:45.444Z,8.70
2023-05-08T13:45:14.702Z,8.35
2023-05-08T13:47:46.122Z,8.73
2023-05-08T13:50:15.812Z,8.63
2023-05-08T13:52:42.819Z,8.93
2023-05-08T13:55:11.373Z,8.73
2023-05-08T13:57:38.978Z,9.48
2023-05-08T14:00:07.055Z,8.70
2023-05-08T14:02:35.172Z,8.05
2023-05-08T14:05:01.914Z,8.65
2023-05-08T14:07:29.983Z,7.63
2023-05-08T14:09:56.613Z,8.68
2023-05-08T14:12:23.135Z,8.55
2023-05-08T14:14:49.763Z,8.77
2023-05-08T14:19:43.248Z,8.95
2023-05-08T14:22:09.854Z,7.82
2023-05-08T14:24:36.438Z,7.95
2023-05-08T14:27:05.858Z,7.20
2023-05-08T14:29:36.126Z,8.40
2023-05-08T14:32:02.715Z,7.45
2023-05-08T14:34:29.590Z,9.00
2023-05-08T14:36:56.289Z,8.43
2023-05-08T14:39:22.840Z,6.72
2023-05-08T14:44:36.721Z,7.10
2023-05-08T14:47:03.539Z,6.47
2023-05-08T14:52:05.990Z,7.18
2023-05-08T14:54:32.859Z,5.70
2023-05-08T14:56:59.679Z,6.70
2023-05-08T14:59:26.355Z,6.18
2023-05-08T15:04:19.587Z,6.05
2023-05-08T15:06:46.067Z,6.40
2023-05-08T15:09:12.771Z,6.00
2023-05-08T15:11:40.205Z,6.00
2023-05-08T15:14:06.975Z,6.05
2023-05-08T15:16:33.710Z,5.82
2023-05-08T15:19:00.640Z,6.45
2023-05-08T15:21:28.496Z,4.90
2023-05-08T15:23:56.279Z,5.70
2023-05-08T15:26:23.294Z,6.55
2023-05-08T15:31:17.039Z,4.95
2023-05-08T15:33:44.908Z,5.60
2023-05-08T15:36:13.314Z,5.53
2023-05-08T15:38:41.217Z,6.05
2023-05-08T15:41:07.838Z,5.15
2023-05-08T15:43:34.552Z,5.70
2023-05-08T15:46:01.085Z,6.70
2023-05-08T15:48:27.740Z,6.03
2023-05-08T15:50:54.421Z,7.43
2023-05-08T15:53:20.950Z,6.05
2023-05-08T15:55:47.670Z,5.72
2023-05-08T15:58:14.344Z,6.50
2023-05-08T16:00:45.244Z,6.28
2023-05-08T16:03:12.543Z,5.47
2023-05-08T16:05:39.446Z,5.63
2023-05-08T16:08:07.398Z,7.22
2023-05-08T16:10:34.093Z,5.53
2023-05-08T16:13:00.564Z,5.30
2023-05-08T16:17:53.833Z,5.65
2023-05-08T16:22:47.460Z,5.45
2023-05-08T16:25:14.815Z,5.38
2023-05-08T16:27:42.059Z,6.18
2023-05-08T16:30:09.672Z,5.72
2023-05-08T16:32:36.767Z,7.20
2023-05-08T16:35:03.548Z,5.38
2023-05-08T16:37:30.044Z,6.55
2023-05-08T16:39:56.515Z,6.95
2023-05-08T16:44:49.444Z,5.20
2023-05-08T16:49:43.225Z,5.07
2023-05-08T16:52:09.889Z,4.68
2023-05-08T16:54:36.630Z,4.72
2023-05-08T16:57:03.278Z,4.40
2023-05-08T16:59:29.894Z,4.57
2023-05-08T17:01:56.811Z,5.22
2023-05-08T17:04:23.375Z,4.70
2023-05-08T17:09:18.333Z,4.75
2023-05-08T17:11:45.565Z,4.10
2023-05-08T17:14:13.211Z,5.43
2023-05-08T17:19:06.679Z,4.88
2023-05-08T17:24:00.594Z,4.10
2023-05-08T17:26:27.358Z,6.55
2023-05-08T17:28:53.937Z,4.80
2023-05-08T17:33:47.828Z,5.80
2023-05-08T17:36:15.199Z,5.20
2023-05-08T17:38:45.758Z,4.13
2023-05-08T17:41:13.117Z,4.60
2023-05-08T17:43:40.461Z,5.28
2023-05-08T17:46:07.713Z,4.72
2023-05-08T17:48:34.508Z,4.05
2023-05-08T17:51:02.583Z,4.32
2023-05-08T17:53:30.643Z,5.18
2023-05-08T17:55:57.674Z,5.80
2023-05-08T17:58:25.140Z,6.07
2023-05-08T18:00:52.009Z,7.38
2023-05-08T18:03:19.150Z,5.28
2023-05-08T18:05:46.656Z,5.32
2023-05-08T18:08:13.776Z,7.07
2023-05-08T18:10:40.786Z,6.07
2023-05-08T18:13:07.876Z,6.88
2023-05-08T18:18:05.748Z,5.82
2023-05-08T18:20:32.534Z,5.95
2023-05-08T18:25:25.698Z,7.30
2023-05-08T18:30:18.958Z,5.32
2023-05-08T18:32:46.444Z,6.38
2023-05-08T18:35:13.938Z,6.75
2023-05-08T18:37:40.540Z,5.13
2023-05-08T18:40:08.092Z,5.78
2023-05-08T18:42:34.898Z,9.55
2023-05-08T18:47:29.442Z,5.07
2023-05-08T18:49:57.707Z,6.78
2023-05-08T18:52:24.373Z,6.30
2023-05-08T18:54:50.909Z,6.00
2023-05-08T18:57:17.761Z,6.07
2023-05-08T18:59:44.501Z,6.35
2023-05-08T19:04:37.590Z,8.27
2023-05-08T19:07:04.028Z,7.45
2023-05-08T19:09:30.512Z,8.75
2023-05-08T19:11:57.178Z,7.80
2023-05-08T19:16:51.458Z,5.30
2023-05-08T19:19:18.215Z,6.82
2023-05-08T19:21:45.600Z,6.47
2023-05-08T19:24:13.940Z,8.77
2023-05-08T19:26:41.208Z,6.50
2023-05-08T19:31:34.350Z,6.93
2023-05-08T19:36:28.308Z,6.10
2023-05-08T19:38:55.221Z,6.22
2023-05-08T19:41:21.796Z,10.38
2023-05-08T19:43:48.908Z,7.28
2023-05-08T19:46:15.807Z,9.20
2023-05-08T19:48:42.977Z,6.70
2023-05-08T19:51:11.575Z,8.80
2023-05-08T19:53:39.701Z,6.30
2023-05-08T19:56:06.214Z,8.00
2023-05-08T19:58:32.936Z,8.55
2023-05-08T20:00:59.654Z,7.68
2023-05-08T20:05:53.532Z,9.07
2023-05-08T20:08:20.300Z,9.43
2023-05-08T20:10:48.926Z,9.73
2023-05-08T20:13:17.145Z,7.97
2023-05-08T20:15:45.115Z,5.95
2023-05-08T20:18:12.262Z,7.28
2023-05-08T20:20:40.243Z,8.55
2023-05-08T20:23:08.048Z,6.95
2023-05-08T20:25:34.787Z,11.57
2023-05-08T20:28:01.934Z,7.80
2023-05-08T20:30:28.798Z,8.80
2023-05-08T20:32:55.611Z,7.55
2023-05-08T20:35:23.956Z,9.32
2023-05-08T20:37:51.348Z,7.95
2023-05-08T20:40:18.073Z,6.78
2023-05-08T20:42:45.097Z,8.73
2023-05-08T20:45:13.018Z,11.52
2023-05-08T20:47:40.062Z,7.55
2023-05-08T20:50:07.382Z,7.38
2023-05-08T20:52:35.361Z,8.52
2023-05-08T20:55:05.424Z,9.10
2023-05-08T20:57:31.826Z,8.20
2023-05-08T21:02:25.509Z,7.40
2023-05-08T21:04:52.838Z,8.68
2023-05-08T21:07:20.261Z,7.82
2023-05-08T21:12:13.438Z,7.35
2023-05-08T21:14:39.846Z,7.78
2023-05-08T21:17:06.264Z,7.65
2023-05-08T21:19:32.892Z,6.80
2023-05-08T21:24:26.256Z,7.90
2023-05-08T21:26:53.347Z,7.70
2023-05-08T21:29:20.024Z,8.73
2023-05-08T21:34:13.423Z,8.65
2023-05-08T21:39:07.161Z,9.30
2023-05-08T21:41:33.887Z,7.57
2023-05-08T21:46:27.451Z,7.53
2023-05-08T21:48:54.002Z,9.32
2023-05-08T21:51:20.544Z,9.00
2023-05-08T21:53:48.115Z,9.88
2023-05-08T21:56:16.463Z,7.70
2023-05-08T21:58:43.094Z,9.68
2023-05-08T22:01:09.565Z,8.75
2023-05-08T22:03:36.895Z,12.85
2023-05-08T22:06:03.549Z,10.68
2023-05-08T22:08:30.257Z,9.05
2023-05-08T22:10:57.769Z,8.65
2023-05-08T22:13:24.547Z,9.30
2023-05-08T22:18:19.633Z,8.82
2023-05-08T22:20:46.824Z,10.30
2023-05-08T22:23:13.272Z,7.53
2023-05-08T22:25:39.782Z,9.95
2023-05-08T22:30:33.658Z,10.60
2023-05-08T22:33:00.813Z,11.25
2023-05-08T22:35:27.636Z,9.80
2023-05-08T22:37:54.575Z,8.80
2023-05-08T22:40:22.175Z,10.00
2023-05-08T22:42:51.539Z,9.88
2023-05-08T22:45:18.480Z,10.13
2023-05-08T22:47:45.412Z,9.38
2023-05-08T22:50:13.849Z,10.35
2023-05-08T22:52:40.551Z,9.60
2023-05-08T22:55:07.781Z,9.00
2023-05-08T22:57:34.399Z,11.98
2023-05-08T23:00:01.476Z,9.88
2023-05-08T23:02:33.189Z,11.13
2023-05-08T23:05:02.031Z,9.75
2023-05-08T23:07:30.149Z,8.38
2023-05-08T23:09:56.633Z,12.35
2023-05-08T23:12:23.592Z,12.88
2023-05-08T23:14:50.080Z,11.10
2023-05-08T23:17:16.925Z,11.25
2023-05-08T23:19:45.254Z,13.98
2023-05-08T23:22:12.007Z,15.02
2023-05-08T23:24:38.609Z,12.02
2023-05-08T23:29:33.001Z,9.68
2023-05-08T23:32:00.281Z,10.15
2023-05-08T23:34:26.980Z,14.13
2023-05-08T23:36:54.688Z,12.45
2023-05-08T23:39:23.029Z,12.07
2023-05-08T23:41:49.488Z,12.35
2023-05-08T23:44:17.328Z,12.43
2023-05-08T23:46:43.975Z,14.07
2023-05-08T23:51:37.495Z,11.77
2023-05-08T23:54:05.865Z,11.43
2023-05-08T23:56:32.906Z,10.90
2023-05-08T23:58:59.697Z,10.18
